Currently 58°F in French Valley, California, USA
58°F
59°F / 57°F
calm
0.00"
Friday, October 18, 2019 5:33 AM PDT

French Valley, California Weather Summary
Last 36 Hours

Temperature Winds Hourly Humidity Dewpoint
Time Report Norm Report Norm Max Gusts Precip. Rpt. Norm Rpt. Norm Pressure
1Fri 05:33 AM  57.9°F  58°F  calm  1 mph  none  0.00"  94%  80%  56°F  52°F  29.98"
Fri 05:00 AM  58.4°F  59°F  calm  1 mph  4 mph  0.00"  93%  80%  56°F  52°F  29.97"
Fri 04:00 AM  58.8°F  59°F  calm  1 mph  4 mph  0.00"  94%  80%  57°F  53°F  29.96"
Fri 03:00 AM  58.3°F  60°F  calm  1 mph  5 mph  0.00"  95%  79%  57°F  53°F  29.96"
3Fri 02:21 AM  57.3°F  60°F  calm  1 mph  none  ----  95%  78%  56°F  53°F  29.94"
Fri 02:00 AM  57.8°F  61°F  calm  1 mph  7 mph  0.00"  94%  78%  56°F  53°F  29.93"
Fri 01:00 AM  59.2°F  61°F  calm  1 mph  5 mph  0.00"  92%  77%  57°F  54°F  29.93"
2Fri 12:56 AM  59.3°F  61°F  calm  1 mph  2 mph  ----  92%  77%  57°F  54°F  29.94"
Fri 12:00 AM  58.4°F  62°F  2 mph SW  1 mph  4 mph  0.00"  93%  77%  56°F  54°F  29.91"
Thu 11:00 PM  58.8°F  63°F  calm  1 mph  10 mph  0.00"  94%  76%  57°F  55°F  29.91"
Thu 10:00 PM  59.9°F  64°F  6 mph S  1 mph  12 mph  0.00"  92%  74%  58°F  55°F  29.89"
Thu 09:00 PM  61.0°F  66°F  4 mph SW  2 mph  11 mph  0.00"  90%  72%  58°F  56°F  29.88"
Thu 08:00 PM  61.4°F  67°F  8 mph S  2 mph  17 mph  0.00"  90%  69%  58°F  57°F  29.86"
Thu 07:00 PM  62.1°F  70°F  9 mph S  3 mph  15 mph  0.00"  89%  63%  59°F  56°F  29.85"
Thu 06:00 PM  66.7°F  74°F  9 mph S  5 mph  17 mph  0.00"  75%  56%  58°F  56°F  29.82"
Thu 05:00 PM  72.1°F  77°F  7 mph SW  6 mph  17 mph  0.00"  59%  49%  57°F  56°F  29.82"
Thu 04:00 PM  74.7°F  79°F  7 mph S  6 mph  19 mph  0.00"  49%  44%  54°F  55°F  29.83"
Thu 03:00 PM  74.7°F  80°F  13 mph S  5 mph  19 mph  0.00"  48%  41%  53°F  53°F  29.84"
Thu 02:00 PM  74.6°F  80°F  13 mph S  5 mph  18 mph  0.00"  52%  41%  55°F  53°F  29.86"
Thu 01:00 PM  76.0°F  79°F  12 mph S  4 mph  18 mph  0.00"  43%  42%  51°F  53°F  29.88"
Thu 12:00 PM  76.5°F  77°F  11 mph S  4 mph  15 mph  0.00"  36%  46%  46°F  53°F  29.90"
Thu 11:00 AM  74.6°F  73°F  3 mph S  3 mph  11 mph  0.00"  42%  53%  49°F  54°F  29.91"
Thu 10:00 AM  68.2°F  69°F  7 mph SE  3 mph  12 mph  0.00"  59%  62%  53°F  55°F  29.93"
Thu 09:00 AM  66.0°F  64°F  2 mph S  1 mph  5 mph  0.00"  59%  72%  51°F  55°F  29.93"
Thu 08:00 AM  60.4°F  60°F  calm  1 mph  6 mph  0.00"  73%  78%  51°F  53°F  29.92"
Thu 07:00 AM  57.7°F  58°F  calm  1 mph  2 mph  0.00"  71%  80%  48°F  52°F  29.91"
Thu 06:00 AM  57.3°F  58°F  calm  1 mph  3 mph  0.00"  72%  80%  48°F  52°F  29.91"
Thu 05:00 AM  60.3°F  59°F  calm  1 mph  4 mph  0.00"  68%  80%  49°F  52°F  29.90"
Thu 04:00 AM  61.7°F  59°F  calm  1 mph  6 mph  0.00"  60%  80%  47°F  53°F  29.89"
Thu 03:00 AM  64.5°F  60°F  2 mph SE  1 mph  8 mph  0.00"  51%  79%  46°F  53°F  29.89"
Thu 02:00 AM  61.5°F  61°F  2 mph SE  1 mph  6 mph  0.00"  54%  78%  44°F  54°F  29.91"
Thu 01:00 AM  63.7°F  61°F  calm  1 mph  5 mph  0.00"  61%  78%  49°F  54°F  29.90"
Thu 12:00 AM  64.8°F  62°F  calm  1 mph  none  0.00"  59%  77%  50°F  55°F  29.91"
Wed 11:00 PM  67.2°F  63°F  calm  1 mph  none  0.00"  46%  76%  45°F  55°F  29.92"
Wed 10:00 PM  68.0°F  64°F  calm  1 mph  5 mph  0.00"  53%  74%  50°F  55°F  29.91"
Wed 09:00 PM  72.1°F  66°F  calm  2 mph  9 mph  0.00"  45%  72%  49°F  56°F  29.91"
Wed 08:00 PM  72.9°F  67°F  4 mph SE  2 mph  9 mph  0.00"  44%  69%  49°F  57°F  29.91"
Wed 07:00 PM  73.9°F  70°F  6 mph SE  3 mph  11 mph  0.00"  44%  63%  50°F  56°F  29.90"
Wed 06:00 PM  78.2°F  73°F  6 mph SE  5 mph  15 mph  0.00"  39%  56%  50°F  56°F  29.88"

  1. Current weather data. No green row appears if the current weather data is also the high or low for the current day.
  2. High temperature for the current day.
  3. Low temperature for the current day.

The French Valley, California weather pages are a service of WeatherCurrents. French Valley is located in southwestern Riverside County, California, north of Temecula, east of Murrieta, and south of Winchester. French Valley is bordered by Lake Skinner.
Copyright ©2019  WeatherCurrents. All rights reserved. - Submit questions and comments - Privacy Policy

This page automatically refreshes every 10 minutes.